createdAt,value
2022-11-13T00:04:23.526Z,50.13
2022-11-13T00:09:36.437Z,43.92
2022-11-13T00:14:48.061Z,46.20
2022-11-13T00:19:59.977Z,43.15
2022-11-13T00:25:13.328Z,38.15
2022-11-13T00:30:25.408Z,33.53
2022-11-13T00:35:37.081Z,47.10
2022-11-13T00:40:50.036Z,39.00
2022-11-13T00:46:01.927Z,51.65
2022-11-13T00:51:13.575Z,43.72
2022-11-13T00:56:26.679Z,51.08
2022-11-13T01:01:38.580Z,48.85
2022-11-13T01:06:50.808Z,54.05
2022-11-13T01:12:03.847Z,27.50
2022-11-13T01:17:15.278Z,26.33
2022-11-13T01:22:26.638Z,30.75
2022-11-13T01:27:39.737Z,30.30
2022-11-13T01:32:51.440Z,23.77
2022-11-13T01:38:03.254Z,33.35
2022-11-13T01:43:26.567Z,37.83
2022-11-13T01:48:43.587Z,25.45
2022-11-13T01:53:56.906Z,27.83
2022-11-13T01:59:14.151Z,21.88
2022-11-13T02:04:26.913Z,22.52
2022-11-13T02:09:41.327Z,23.88
2022-11-13T02:14:56.089Z,24.55
2022-11-13T02:20:09.188Z,24.75
2022-11-13T02:25:23.526Z,27.92
2022-11-13T02:30:37.191Z,33.42
2022-11-13T02:35:48.707Z,38.15
2022-11-13T02:41:01.924Z,35.35
2022-11-13T02:46:13.890Z,40.28
2022-11-13T02:51:26.013Z,37.72
2022-11-13T02:56:38.787Z,29.55
2022-11-13T03:01:50.595Z,32.95
2022-11-13T03:07:02.341Z,27.73
2022-11-13T03:12:15.328Z,28.23
2022-11-13T03:17:27.295Z,24.63
2022-11-13T03:22:39.148Z,30.60
2022-11-13T03:27:52.452Z,29.15
2022-11-13T03:33:04.056Z,28.40
2022-11-13T03:38:15.949Z,30.45
2022-11-13T03:43:29.253Z,26.45
2022-11-13T03:48:40.899Z,31.13
2022-11-13T03:53:52.712Z,32.22
2022-11-13T03:59:06.161Z,32.33
2022-11-13T04:04:18.268Z,35.75
2022-11-13T04:09:30.331Z,38.72
2022-11-13T04:14:43.952Z,39.13
2022-11-13T04:19:55.802Z,38.05
2022-11-13T04:25:08.467Z,34.33
2022-11-13T04:30:21.923Z,38.90
2022-11-13T04:35:34.052Z,37.83
2022-11-13T04:40:46.124Z,40.42
2022-11-13T04:45:59.401Z,39.00
2022-11-13T04:51:11.475Z,35.75
2022-11-13T04:56:23.164Z,41.90
2022-11-13T05:01:37.844Z,39.95
2022-11-13T05:06:49.952Z,36.80
2022-11-13T05:12:01.636Z,37.70
2022-11-13T05:17:15.141Z,34.35
2022-11-13T05:22:26.703Z,31.15
2022-11-13T05:27:38.436Z,29.55
2022-11-13T05:32:55.166Z,34.17
2022-11-13T05:38:07.300Z,27.90
2022-11-13T05:43:19.050Z,29.38
2022-11-13T05:48:33.217Z,37.33
2022-11-13T05:53:45.655Z,38.13
2022-11-13T05:58:58.520Z,33.10
2022-11-13T06:04:12.493Z,32.58
2022-11-13T06:09:27.461Z,32.28
2022-11-13T06:14:39.015Z,33.28
2022-11-13T06:19:55.075Z,35.60
2022-11-13T06:25:07.550Z,34.05
2022-11-13T06:30:19.982Z,34.35
2022-11-13T06:35:33.484Z,32.55
2022-11-13T06:40:45.309Z,33.17
2022-11-13T06:45:57.621Z,35.50
2022-11-13T06:51:15.781Z,38.70
2022-11-13T06:56:30.877Z,37.42
2022-11-13T07:01:42.837Z,40.17
2022-11-13T07:06:56.462Z,39.15
2022-11-13T07:12:08.560Z,34.70
2022-11-13T07:17:20.467Z,35.92
2022-11-13T07:22:35.143Z,33.65
2022-11-13T07:27:47.161Z,37.50
2022-11-13T07:33:03.275Z,34.03
2022-11-13T07:38:16.841Z,35.17
2022-11-13T07:43:29.440Z,36.78
2022-11-13T07:48:40.926Z,80.82
2022-11-13T07:53:53.968Z,37.22
2022-11-13T07:59:06.871Z,33.08
2022-11-13T08:04:19.211Z,32.80
2022-11-13T08:09:32.132Z,36.53
2022-11-13T08:14:43.679Z,36.10
2022-11-13T08:19:55.601Z,34.00
2022-11-13T08:25:09.568Z,33.15
2022-11-13T08:30:22.336Z,40.00
2022-11-13T08:35:34.013Z,35.38
2022-11-13T08:40:47.135Z,31.45
2022-11-13T08:45:59.118Z,35.17
2022-11-13T08:51:10.585Z,34.05
2022-11-13T08:56:23.367Z,34.67
2022-11-13T09:01:35.149Z,31.55
2022-11-13T09:06:46.456Z,34.05
2022-11-13T09:11:59.689Z,32.88
2022-11-13T09:17:11.504Z,35.10
2022-11-13T09:22:23.400Z,32.47
2022-11-13T09:27:36.205Z,26.65
2022-11-13T09:32:47.701Z,27.08
2022-11-13T09:37:59.725Z,26.08
2022-11-13T09:43:34.852Z,28.65
2022-11-13T09:48:53.566Z,24.65
2022-11-13T09:54:07.731Z,40.92
2022-11-13T09:59:30.129Z,28.67
2022-11-13T10:04:58.966Z,29.67
2022-11-13T10:10:43.382Z,24.73
2022-11-13T10:16:02.187Z,29.90
2022-11-13T10:21:26.671Z,26.05
2022-11-13T10:26:38.371Z,28.35
2022-11-13T10:31:53.741Z,27.52
2022-11-13T10:37:22.824Z,26.98
2022-11-13T10:42:40.184Z,24.75
2022-11-13T10:48:08.711Z,23.80
2022-11-13T10:53:21.675Z,29.05
2022-11-13T10:58:33.742Z,29.83
2022-11-13T11:03:51.615Z,28.45
2022-11-13T11:09:09.092Z,26.98
2022-11-13T11:14:29.049Z,29.13
2022-11-13T11:19:46.057Z,27.90
2022-11-13T11:25:02.897Z,26.02
2022-11-13T11:30:21.147Z,28.13
2022-11-13T11:35:41.956Z,28.52
2022-11-13T11:40:57.896Z,30.52
2022-11-13T11:46:12.805Z,26.58
2022-11-13T11:51:27.857Z,24.48
2022-11-13T11:56:48.385Z,26.20
2022-11-13T12:02:27.681Z,26.42
2022-11-13T12:07:48.393Z,27.35
2022-11-13T12:13:11.940Z,28.38
2022-11-13T12:18:36.426Z,28.05
2022-11-13T12:24:11.415Z,28.33
2022-11-13T12:29:39.718Z,27.65
2022-11-13T12:34:54.460Z,26.20
2022-11-13T12:40:09.351Z,28.33
2022-11-13T12:45:31.946Z,25.98
2022-11-13T12:50:43.656Z,26.73
2022-11-13T12:56:02.082Z,31.48
2022-11-13T13:01:22.241Z,27.70
2022-11-13T13:06:53.013Z,28.20
2022-11-13T13:12:14.768Z,29.25
2022-11-13T13:17:26.304Z,30.85
2022-11-13T13:22:39.212Z,29.23
2022-11-13T13:27:59.296Z,27.45
2022-11-13T13:33:22.086Z,32.65
2022-11-13T13:38:39.535Z,30.30
2022-11-13T13:44:03.577Z,28.67
2022-11-13T13:49:18.743Z,32.30
2022-11-13T13:54:34.020Z,25.98
2022-11-13T13:59:46.903Z,31.42
2022-11-13T14:04:58.297Z,30.75
2022-11-13T14:10:17.715Z,30.00
2022-11-13T14:15:32.956Z,30.35
2022-11-13T14:20:48.810Z,40.38
2022-11-13T14:26:00.775Z,36.25
2022-11-13T14:31:15.877Z,39.10
2022-11-13T14:36:31.652Z,39.72
2022-11-13T14:41:51.374Z,40.03
2022-11-13T14:47:06.605Z,40.85
2022-11-13T14:52:22.732Z,53.30
2022-11-13T14:57:35.503Z,45.03
2022-11-13T15:02:48.949Z,46.78
2022-11-13T15:08:01.914Z,53.55
2022-11-13T15:13:14.097Z,56.45
2022-11-13T15:18:27.709Z,66.32
2022-11-13T15:23:39.682Z,72.10
2022-11-13T15:28:52.721Z,90.10
2022-11-13T15:34:07.704Z,92.43
2022-11-13T15:39:23.881Z,84.50
2022-11-13T15:44:37.039Z,103.03
2022-11-13T15:50:12.415Z,83.25
2022-11-13T15:55:29.500Z,86.70
2022-11-13T16:00:43.005Z,90.55
2022-11-13T16:06:01.750Z,110.15
2022-11-13T16:11:16.148Z,104.35
2022-11-13T16:16:33.885Z,105.15
2022-11-13T16:21:47.347Z,173.43
2022-11-13T16:27:01.083Z,146.40
2022-11-13T16:32:17.567Z,129.00
2022-11-13T16:37:50.285Z,142.02
2022-11-13T16:43:03.656Z,130.40
2022-11-13T16:48:24.371Z,131.25
2022-11-13T16:53:37.821Z,135.88
2022-11-13T16:58:49.879Z,125.45
2022-11-13T17:04:03.458Z,144.00
2022-11-13T17:09:17.111Z,260.23
2022-11-13T17:14:29.055Z,188.07
2022-11-13T17:19:44.114Z,125.80
2022-11-13T17:25:24.236Z,94.03
2022-11-13T17:30:48.879Z,114.68
2022-11-13T17:36:41.901Z,103.53
2022-11-13T17:47:10.860Z,121.22
2022-11-13T17:52:23.115Z,103.13
2022-11-13T17:57:36.136Z,109.00
2022-11-13T18:02:48.077Z,108.82
2022-11-13T18:08:16.318Z,114.45
2022-11-13T18:13:42.883Z,118.72
2022-11-13T18:18:56.344Z,125.55
2022-11-13T18:24:11.379Z,114.30
2022-11-13T18:29:26.917Z,125.47
2022-11-13T18:34:38.714Z,113.05
2022-11-13T18:39:50.846Z,131.75
2022-11-13T18:45:06.889Z,161.95
2022-11-13T18:50:18.936Z,143.00
2022-11-13T18:55:39.728Z,137.70
2022-11-13T19:00:53.225Z,228.63
2022-11-13T19:06:07.683Z,185.77
2022-11-13T19:11:23.065Z,135.93
2022-11-13T19:16:38.187Z,119.78
2022-11-13T19:21:51.451Z,115.60
2022-11-13T19:27:03.449Z,106.10
2022-11-13T19:32:26.935Z,89.82
2022-11-13T19:37:38.680Z,103.80
2022-11-13T19:42:50.921Z,89.18
2022-11-13T19:48:04.516Z,81.82
2022-11-13T19:53:16.870Z,76.10
2022-11-13T19:58:29.443Z,71.22
2022-11-13T20:04:03.225Z,76.32
2022-11-13T20:09:18.403Z,72.25
2022-11-13T20:14:33.180Z,73.28
2022-11-13T20:19:58.570Z,95.90
2022-11-13T20:25:11.120Z,97.13
2022-11-13T20:30:32.923Z,99.28
2022-11-13T20:35:54.665Z,94.75
2022-11-13T20:41:07.674Z,97.00
2022-11-13T20:46:21.759Z,100.38
2022-11-13T20:51:38.474Z,66.85
2022-11-13T20:56:50.280Z,55.38
2022-11-13T21:02:04.168Z,53.17
2022-11-13T21:07:17.389Z,53.20
2022-11-13T21:12:29.392Z,52.47
2022-11-13T21:17:41.359Z,46.60
2022-11-13T21:22:56.492Z,45.05
2022-11-13T21:28:08.232Z,47.30
2022-11-13T21:33:20.433Z,51.33
2022-11-13T21:38:34.123Z,53.05
2022-11-13T21:43:45.780Z,66.75
2022-11-13T21:48:59.969Z,84.22
2022-11-13T21:54:13.067Z,76.50
2022-11-13T21:59:24.971Z,79.75
2022-11-13T22:04:36.497Z,91.50
2022-11-13T22:09:51.685Z,107.28
2022-11-13T22:15:05.392Z,137.70
2022-11-13T22:20:17.385Z,148.32
2022-11-13T22:25:30.426Z,76.63
2022-11-13T22:30:42.690Z,73.97
2022-11-13T22:36:05.598Z,85.57
2022-11-13T22:41:23.160Z,81.78
2022-11-13T22:46:37.070Z,68.85
2022-11-13T22:51:49.211Z,63.50
2022-11-13T22:57:04.251Z,74.60
2022-11-13T23:02:16.330Z,72.35
2022-11-13T23:07:27.900Z,75.25
2022-11-13T23:12:43.016Z,82.15
2022-11-13T23:17:54.773Z,88.70
2022-11-13T23:23:06.592Z,98.55
2022-11-13T23:28:19.632Z,85.85
2022-11-13T23:33:31.546Z,95.32
2022-11-13T23:38:43.520Z,78.00
2022-11-13T23:44:12.312Z,68.95
2022-11-13T23:49:24.212Z,54.17
2022-11-13T23:54:36.263Z,37.15
2022-11-13T23:59:49.833Z,42.08
